createdAt,value
2023-01-21T00:00:02.749Z,4.80
2023-01-21T00:01:02.757Z,7.60
2023-01-21T00:02:02.815Z,6.40
2023-01-21T00:03:02.723Z,4.20
2023-01-21T00:04:02.688Z,4.30
2023-01-21T00:05:02.707Z,3.50
2023-01-21T00:06:02.674Z,2.10
2023-01-21T00:07:02.656Z,2.90
2023-01-21T00:08:02.986Z,2.70
2023-01-21T00:09:02.654Z,1.60
2023-01-21T00:10:02.674Z,1.90
2023-01-21T00:11:02.650Z,3.10
2023-01-21T00:12:02.595Z,2.30
2023-01-21T00:13:02.609Z,1.20
2023-01-21T00:14:02.626Z,1.70
2023-01-21T00:15:02.630Z,4.90
2023-01-21T00:16:02.616Z,1.40
2023-01-21T00:17:02.558Z,1.60
2023-01-21T00:18:02.565Z,1.00
2023-01-21T00:19:02.529Z,1.70
2023-01-21T00:20:02.539Z,1.40
2023-01-21T00:21:02.533Z,1.20
2023-01-21T00:22:02.504Z,1.40
2023-01-21T00:23:02.487Z,1.30
2023-01-21T00:24:02.498Z,1.20
2023-01-21T00:25:02.495Z,2.10
2023-01-21T00:26:02.470Z,1.50
2023-01-21T00:27:02.459Z,2.30
2023-01-21T00:28:02.435Z,1.50
2023-01-21T00:29:02.428Z,1.30
2023-01-21T00:30:02.462Z,1.80
2023-01-21T00:31:02.644Z,1.10
2023-01-21T00:32:02.388Z,4.00
2023-01-21T00:33:02.402Z,1.40
2023-01-21T00:34:02.369Z,1.30
2023-01-21T00:35:02.536Z,1.10
2023-01-21T00:36:02.359Z,1.20
2023-01-21T00:37:02.397Z,1.40
2023-01-21T00:38:02.353Z,2.20
2023-01-21T00:39:02.342Z,1.40
2023-01-21T00:40:02.319Z,1.90
2023-01-21T00:41:02.300Z,1.70
2023-01-21T00:42:02.285Z,1.30
2023-01-21T00:43:02.302Z,2.80
2023-01-21T00:44:02.377Z,2.30
2023-01-21T00:45:02.276Z,1.50
2023-01-21T00:46:02.302Z,1.90
2023-01-21T00:47:02.264Z,1.50
2023-01-21T00:48:02.220Z,1.00
2023-01-21T00:49:02.219Z,1.10
2023-01-21T00:50:02.245Z,1.20
2023-01-21T00:51:02.247Z,2.20
2023-01-21T00:52:02.185Z,2.20
2023-01-21T00:53:02.180Z,1.40
2023-01-21T00:54:02.167Z,2.30
2023-01-21T00:55:02.162Z,1.70
2023-01-21T00:56:02.160Z,1.80
2023-01-21T00:57:02.184Z,1.30
2023-01-21T00:58:02.166Z,2.20
2023-01-21T00:59:02.150Z,1.10
2023-01-21T01:00:02.120Z,2.50
2023-01-21T01:01:02.080Z,1.30
2023-01-21T01:02:02.070Z,1.60
2023-01-21T01:03:02.157Z,3.20
2023-01-21T01:04:02.049Z,1.60
2023-01-21T01:05:02.113Z,2.10
2023-01-21T01:06:02.034Z,2.40
2023-01-21T01:07:02.049Z,1.60
2023-01-21T01:08:02.031Z,2.30
2023-01-21T01:09:02.013Z,2.20
2023-01-21T01:10:02.009Z,2.30
2023-01-21T01:11:01.987Z,1.30
2023-01-21T01:12:01.984Z,2.00
2023-01-21T01:13:01.987Z,2.00
2023-01-21T01:14:01.946Z,1.60
2023-01-21T01:15:02.473Z,1.10
2023-01-21T01:16:02.039Z,2.70
2023-01-21T01:17:01.927Z,2.20
2023-01-21T01:18:01.928Z,1.30
2023-01-21T01:19:02.056Z,1.30
2023-01-21T01:20:01.916Z,3.40
2023-01-21T01:21:01.897Z,1.70
2023-01-21T01:22:01.872Z,3.40
2023-01-21T01:23:01.859Z,1.50
2023-01-21T01:24:01.865Z,1.80
2023-01-21T01:25:01.908Z,1.80
2023-01-21T01:26:01.842Z,2.00
2023-01-21T01:27:01.824Z,1.10
2023-01-21T01:28:01.840Z,1.70
2023-01-21T01:29:01.809Z,2.70
2023-01-21T01:30:01.850Z,1.10
2023-01-21T01:31:01.947Z,1.60
2023-01-21T01:32:01.812Z,2.70
2023-01-21T01:33:01.755Z,1.50
2023-01-21T01:34:01.740Z,1.20
2023-01-21T01:35:01.750Z,1.20
2023-01-21T01:36:01.743Z,1.60
2023-01-21T01:37:01.721Z,1.40
2023-01-21T01:38:01.703Z,1.00
2023-01-21T01:39:01.701Z,1.90
2023-01-21T01:40:01.705Z,1.40
2023-01-21T01:41:01.675Z,2.00
2023-01-21T01:42:01.663Z,1.20
2023-01-21T01:43:01.722Z,1.40
2023-01-21T01:44:01.660Z,1.30
2023-01-21T01:45:01.671Z,1.20
2023-01-21T01:46:01.678Z,1.40
2023-01-21T01:47:01.637Z,1.00
2023-01-21T01:48:01.641Z,1.20
2023-01-21T01:49:01.623Z,1.00
2023-01-21T01:50:01.628Z,1.70
2023-01-21T01:51:01.599Z,3.20
2023-01-21T01:52:01.834Z,1.60
2023-01-21T01:53:01.571Z,1.80
2023-01-21T01:54:01.550Z,3.10
2023-01-21T01:55:01.560Z,1.70
2023-01-21T01:56:01.552Z,0.90
2023-01-21T01:57:01.503Z,1.70
2023-01-21T01:58:01.543Z,2.10
2023-01-21T01:59:01.525Z,1.10
2023-01-21T02:00:01.544Z,2.30
2023-01-21T02:01:01.477Z,4.00
2023-01-21T02:02:01.584Z,1.40
2023-01-21T02:03:01.572Z,1.60
2023-01-21T02:04:01.442Z,1.90
2023-01-21T02:05:01.629Z,1.30
2023-01-21T02:06:01.430Z,1.60
2023-01-21T02:07:01.413Z,1.90
2023-01-21T02:08:01.547Z,1.90
2023-01-21T02:09:01.434Z,3.10
2023-01-21T02:10:01.413Z,0.90
2023-01-21T02:11:01.433Z,1.30
2023-01-21T02:12:01.404Z,0.80
2023-01-21T02:13:01.346Z,1.00
2023-01-21T02:14:01.324Z,2.00
2023-01-21T02:15:01.359Z,1.10
2023-01-21T02:16:01.424Z,1.00
2023-01-21T02:17:01.337Z,0.80
2023-01-21T02:18:01.300Z,2.10
2023-01-21T02:19:01.329Z,0.80
2023-01-21T02:20:01.344Z,1.50
2023-01-21T02:21:01.256Z,1.90
2023-01-21T02:22:01.248Z,1.50
2023-01-21T02:23:01.251Z,0.80
2023-01-21T02:24:01.237Z,0.60
2023-01-21T02:25:01.243Z,1.20
2023-01-21T02:26:01.233Z,0.80
2023-01-21T02:27:01.202Z,1.70
2023-01-21T02:28:01.193Z,1.30
2023-01-21T02:29:01.174Z,1.20
2023-01-21T02:30:01.182Z,0.90
2023-01-21T02:31:01.282Z,3.70
2023-01-21T02:32:01.164Z,1.00
2023-01-21T02:33:01.140Z,1.10
2023-01-21T02:34:01.131Z,1.20
2023-01-21T02:35:01.148Z,1.50
2023-01-21T02:36:01.101Z,1.40
2023-01-21T02:37:01.104Z,1.80
2023-01-21T02:38:01.085Z,1.00
2023-01-21T02:39:01.106Z,0.70
2023-01-21T02:40:01.146Z,1.40
2023-01-21T02:41:01.050Z,1.60
2023-01-21T02:42:01.075Z,1.20
2023-01-21T02:43:01.025Z,2.10
2023-01-21T02:44:01.015Z,1.90
2023-01-21T02:45:01.052Z,1.70
2023-01-21T02:46:01.005Z,1.40
2023-01-21T02:47:00.987Z,1.80
2023-01-21T02:48:00.977Z,2.10
2023-01-21T02:49:00.965Z,1.20
2023-01-21T02:50:01.049Z,1.30
2023-01-21T02:51:01.021Z,2.90
2023-01-21T02:52:00.931Z,0.90
2023-01-21T02:53:00.932Z,1.60
2023-01-21T02:54:00.942Z,2.30
2023-01-21T02:55:00.932Z,2.20
2023-01-21T02:56:00.974Z,0.70
2023-01-21T02:57:00.889Z,1.20
2023-01-21T02:58:00.876Z,0.90
2023-01-21T02:59:00.864Z,0.40
2023-01-21T03:00:00.862Z,0.90
2023-01-21T03:01:00.906Z,1.60
2023-01-21T03:02:00.877Z,1.20
2023-01-21T03:03:00.864Z,0.70
2023-01-21T03:04:00.861Z,1.40
2023-01-21T03:05:00.831Z,1.10
2023-01-21T03:06:00.816Z,1.10
2023-01-21T03:07:00.806Z,1.20
2023-01-21T03:08:00.767Z,1.40
2023-01-21T03:09:00.778Z,0.90
2023-01-21T03:10:00.777Z,1.80
2023-01-21T03:11:00.761Z,0.90
2023-01-21T03:12:00.727Z,1.80
2023-01-21T03:13:00.753Z,1.10
2023-01-21T03:14:00.718Z,1.00
2023-01-21T03:15:00.733Z,1.10
2023-01-21T03:16:00.724Z,1.10
2023-01-21T03:17:00.716Z,0.70
2023-01-21T03:18:00.673Z,1.70
2023-01-21T03:19:00.667Z,5.20
2023-01-21T03:20:00.658Z,0.60
2023-01-21T03:21:00.666Z,1.00
2023-01-21T03:22:00.624Z,0.50
2023-01-21T03:23:00.646Z,0.60
2023-01-21T03:24:00.606Z,0.90
2023-01-21T03:25:00.633Z,1.30
2023-01-21T03:26:00.592Z,0.80
2023-01-21T03:27:00.618Z,0.50
2023-01-21T03:28:00.565Z,0.70
2023-01-21T03:29:00.569Z,1.40
2023-01-21T03:30:00.578Z,0.50
2023-01-21T03:31:00.576Z,1.60
2023-01-21T03:32:00.521Z,0.70
2023-01-21T03:33:00.512Z,1.50
2023-01-21T03:34:00.507Z,0.50
2023-01-21T03:35:00.507Z,1.30
2023-01-21T03:36:00.500Z,1.00
2023-01-21T03:37:00.475Z,1.50
2023-01-21T03:38:00.461Z,0.70
2023-01-21T03:39:00.474Z,1.00
2023-01-21T03:40:00.469Z,2.00
2023-01-21T03:41:00.440Z,1.40
2023-01-21T03:42:00.433Z,0.80
2023-01-21T03:43:00.426Z,1.80
2023-01-21T03:44:00.424Z,1.20
2023-01-21T03:45:00.478Z,1.80
2023-01-21T03:46:00.397Z,0.70
2023-01-21T03:47:00.400Z,0.70
2023-01-21T03:48:00.364Z,0.70
2023-01-21T03:49:00.366Z,0.80
2023-01-21T03:50:00.371Z,0.70
2023-01-21T03:51:00.406Z,4.00
2023-01-21T03:52:00.322Z,1.70
2023-01-21T03:53:00.324Z,0.60
2023-01-21T03:54:00.468Z,1.30
2023-01-21T03:55:00.339Z,0.70
2023-01-21T03:56:00.281Z,0.80
2023-01-21T03:57:00.303Z,0.60
2023-01-21T03:58:00.261Z,1.10
2023-01-21T03:59:00.254Z,0.70
2023-01-21T04:00:00.269Z,1.00
2023-01-21T04:01:00.265Z,0.60
2023-01-21T04:02:00.267Z,0.60
2023-01-21T04:03:00.203Z,1.70
2023-01-21T04:04:00.255Z,0.70
2023-01-21T04:05:00.200Z,0.80
2023-01-21T04:06:00.190Z,1.30
2023-01-21T04:07:00.160Z,1.00
2023-01-21T04:08:00.180Z,0.60
2023-01-21T04:09:00.146Z,0.80
2023-01-21T04:10:00.189Z,0.50
2023-01-21T04:11:00.160Z,0.60
2023-01-21T04:12:00.114Z,0.90
2023-01-21T04:13:00.110Z,1.40
2023-01-21T04:14:00.128Z,0.70
2023-01-21T04:15:00.120Z,0.60
2023-01-21T04:16:00.158Z,0.80
2023-01-21T04:17:00.059Z,0.50
2023-01-21T04:18:00.098Z,0.90
2023-01-21T04:19:00.078Z,1.20
2023-01-21T04:20:00.051Z,0.80
2023-01-21T04:21:00.025Z,1.00
2023-01-21T04:22:00.033Z,0.60
2023-01-21T04:23:00.012Z,0.90
2023-01-21T04:24:00.014Z,0.70
2023-01-21T04:24:59.999Z,0.70
2023-01-21T04:25:59.995Z,0.80
2023-01-21T04:27:00.010Z,0.70
2023-01-21T04:27:59.956Z,0.60
2023-01-21T04:29:00.013Z,0.70
2023-01-21T04:29:59.926Z,1.10
2023-01-21T04:31:00.008Z,0.70
2023-01-21T04:32:00.047Z,0.70
2023-01-21T04:32:59.915Z,0.90
2023-01-21T04:33:59.940Z,1.70
2023-01-21T04:34:59.927Z,1.10
2023-01-21T04:35:59.905Z,0.70
2023-01-21T04:36:59.860Z,0.60
2023-01-21T04:37:59.844Z,1.30
2023-01-21T04:38:59.854Z,0.50
2023-01-21T04:39:59.878Z,0.30
2023-01-21T04:40:59.824Z,0.60
2023-01-21T04:41:59.801Z,0.70
2023-01-21T04:42:59.810Z,1.20
2023-01-21T04:43:59.775Z,0.70
2023-01-21T04:44:59.840Z,1.20
2023-01-21T04:45:59.807Z,0.70
2023-01-21T04:46:59.749Z,1.20
2023-01-21T04:47:59.742Z,0.90
2023-01-21T04:48:59.737Z,0.80
2023-01-21T04:49:59.729Z,1.80
2023-01-21T04:50:59.746Z,1.90
2023-01-21T04:51:59.700Z,3.00
2023-01-21T04:52:59.686Z,0.90
2023-01-21T04:53:59.674Z,1.10
2023-01-21T04:54:59.729Z,2.60
2023-01-21T04:55:59.650Z,0.70
2023-01-21T04:56:59.682Z,1.20
2023-01-21T04:57:59.656Z,0.70
2023-01-21T04:58:59.647Z,1.00
2023-01-21T04:59:59.678Z,1.60
2023-01-21T05:00:59.675Z,1.40
2023-01-21T05:01:59.621Z,0.90
2023-01-21T05:02:59.630Z,0.90
2023-01-21T05:03:59.607Z,1.20
2023-01-21T05:04:59.577Z,0.60
2023-01-21T05:05:59.552Z,0.80
2023-01-21T05:06:59.540Z,1.00
2023-01-21T05:07:59.540Z,1.10
2023-01-21T05:08:59.524Z,0.60
2023-01-21T05:09:59.550Z,0.80
2023-01-21T05:10:59.563Z,1.00
2023-01-21T05:11:59.538Z,1.00
2023-01-21T05:12:59.491Z,1.50
2023-01-21T05:13:59.471Z,1.00
2023-01-21T05:14:59.495Z,0.70
2023-01-21T05:15:59.501Z,1.20
2023-01-21T05:16:59.553Z,1.10
2023-01-21T05:17:59.433Z,1.80
2023-01-21T05:18:59.417Z,1.10
2023-01-21T05:19:59.428Z,0.90
2023-01-21T05:20:59.397Z,2.20
2023-01-21T05:21:59.417Z,2.10
2023-01-21T05:22:59.373Z,0.80
2023-01-21T05:23:59.373Z,3.00
2023-01-21T05:24:59.377Z,0.80
2023-01-21T05:25:59.354Z,1.40
2023-01-21T05:26:59.351Z,1.00
2023-01-21T05:27:59.341Z,1.60
2023-01-21T05:28:59.350Z,1.00
2023-01-21T05:29:59.326Z,1.00
2023-01-21T05:30:59.387Z,0.70
2023-01-21T05:31:59.325Z,1.00
2023-01-21T05:32:59.286Z,0.60
2023-01-21T05:33:59.270Z,0.70
2023-01-21T05:34:59.318Z,1.10
2023-01-21T05:35:59.258Z,1.60
2023-01-21T05:36:59.248Z,1.30
2023-01-21T05:38:00.466Z,0.70
2023-01-21T05:38:59.212Z,1.10
2023-01-21T05:39:59.252Z,1.00
2023-01-21T05:40:59.186Z,1.40
2023-01-21T05:41:59.172Z,1.00
2023-01-21T05:42:59.208Z,0.90
2023-01-21T05:43:59.251Z,2.60
2023-01-21T05:44:59.163Z,0.90
2023-01-21T05:45:59.248Z,0.90
2023-01-21T05:46:59.136Z,1.00
2023-01-21T05:47:59.137Z,0.90
2023-01-21T05:48:59.107Z,0.60
2023-01-21T05:49:59.134Z,2.10
2023-01-21T05:50:59.134Z,1.20
2023-01-21T05:51:59.102Z,1.30
2023-01-21T05:52:59.068Z,0.60
2023-01-21T05:53:59.059Z,0.70
2023-01-21T05:55:02.323Z,0.80
2023-01-21T05:55:59.039Z,1.10
2023-01-21T05:56:59.017Z,0.50
2023-01-21T05:57:59.022Z,1.00
2023-01-21T05:58:59.013Z,0.90
2023-01-21T05:59:59.045Z,1.40
2023-01-21T06:00:58.977Z,1.20
2023-01-21T06:01:58.964Z,1.50
2023-01-21T06:02:58.969Z,0.50
2023-01-21T06:03:58.991Z,0.90
2023-01-21T06:04:58.960Z,1.00
2023-01-21T06:05:58.925Z,1.20
2023-01-21T06:06:58.914Z,0.80
2023-01-21T06:07:58.921Z,0.80
2023-01-21T06:08:58.950Z,1.90
2023-01-21T06:09:58.913Z,2.70
2023-01-21T06:10:58.910Z,1.20
2023-01-21T06:11:58.860Z,0.90
2023-01-21T06:12:58.854Z,1.10
2023-01-21T06:13:58.839Z,1.00
2023-01-21T06:14:58.902Z,1.60
2023-01-21T06:15:58.868Z,1.40
2023-01-21T06:16:58.851Z,1.00
2023-01-21T06:17:58.810Z,0.80
2023-01-21T06:18:58.845Z,0.70
2023-01-21T06:19:58.782Z,1.00
2023-01-21T06:20:58.775Z,1.00
2023-01-21T06:21:58.829Z,0.90
2023-01-21T06:22:58.761Z,1.50
2023-01-21T06:23:58.935Z,0.90
2023-01-21T06:24:59.023Z,0.60
2023-01-21T06:25:58.713Z,1.40
2023-01-21T06:26:58.702Z,1.70
2023-01-21T06:27:58.718Z,1.10
2023-01-21T06:28:58.679Z,2.00
2023-01-21T06:29:58.724Z,1.20
2023-01-21T06:30:58.810Z,1.20
2023-01-21T06:31:58.847Z,0.70
2023-01-21T06:32:58.649Z,0.90
2023-01-21T06:33:58.640Z,0.90
2023-01-21T06:34:58.655Z,1.30
2023-01-21T06:35:58.612Z,0.90
2023-01-21T06:36:58.631Z,1.40
2023-01-21T06:37:58.655Z,1.70
2023-01-21T06:38:58.585Z,1.60
2023-01-21T06:39:58.580Z,1.80
2023-01-21T06:40:58.584Z,1.40
2023-01-21T06:41:58.555Z,1.10
2023-01-21T06:42:58.537Z,1.60
2023-01-21T06:43:58.545Z,1.40
2023-01-21T06:44:58.563Z,1.80
2023-01-21T06:45:58.569Z,0.80
2023-01-21T06:47:02.060Z,1.10
2023-01-21T06:47:58.513Z,1.30
2023-01-21T06:48:58.491Z,0.80
2023-01-21T06:49:58.481Z,1.80
2023-01-21T06:50:58.507Z,1.00
2023-01-21T06:51:58.465Z,1.50
2023-01-21T06:52:58.448Z,0.90
2023-01-21T06:53:58.593Z,1.10
2023-01-21T06:54:58.653Z,1.80
2023-01-21T06:55:58.435Z,1.60
2023-01-21T06:56:58.399Z,1.50
2023-01-21T06:57:58.381Z,1.00
2023-01-21T06:58:58.369Z,0.90
2023-01-21T06:59:58.384Z,1.60
2023-01-21T07:00:58.451Z,1.20
2023-01-21T07:01:58.384Z,2.00
2023-01-21T07:02:58.424Z,3.50
2023-01-21T07:03:58.328Z,2.00
2023-01-21T07:04:59.246Z,1.60
2023-01-21T07:05:58.312Z,2.00
2023-01-21T07:06:58.357Z,1.20
2023-01-21T07:07:58.297Z,2.10
2023-01-21T07:08:58.270Z,3.60
2023-01-21T07:09:58.283Z,1.30
2023-01-21T07:10:58.253Z,0.90
2023-01-21T07:11:58.240Z,3.00
2023-01-21T07:12:58.232Z,2.10
2023-01-21T07:13:58.244Z,1.80
2023-01-21T07:14:58.228Z,1.90
2023-01-21T07:15:58.261Z,1.70
2023-01-21T07:16:58.183Z,1.40
2023-01-21T07:17:58.176Z,1.10
2023-01-21T07:18:58.183Z,2.00
2023-01-21T07:19:58.221Z,2.00
2023-01-21T07:20:58.225Z,1.70
2023-01-21T07:21:58.137Z,1.40
2023-01-21T07:22:58.161Z,1.40
2023-01-21T07:23:58.113Z,1.40
2023-01-21T07:24:58.104Z,2.50
2023-01-21T07:25:58.176Z,1.50
2023-01-21T07:26:58.124Z,1.50
2023-01-21T07:27:58.083Z,3.00
2023-01-21T07:29:00.362Z,1.80
2023-01-21T07:29:58.050Z,2.40
2023-01-21T07:30:58.136Z,2.00
2023-01-21T07:31:58.174Z,2.30
2023-01-21T07:32:58.046Z,2.20
2023-01-21T07:33:58.016Z,1.70
2023-01-21T07:34:58.002Z,1.60
2023-01-21T07:35:58.024Z,1.50
2023-01-21T07:36:57.977Z,1.90
2023-01-21T07:37:57.970Z,1.20
2023-01-21T07:38:57.979Z,2.40
2023-01-21T07:39:58.025Z,1.40
2023-01-21T07:40:57.948Z,2.50
2023-01-21T07:41:57.953Z,2.20
2023-01-21T07:42:57.940Z,1.90
2023-01-21T07:43:57.905Z,2.00
2023-01-21T07:44:57.919Z,2.90
2023-01-21T07:46:00.005Z,1.70
2023-01-21T07:46:57.895Z,1.70
2023-01-21T07:47:57.866Z,2.60
2023-01-21T07:48:57.855Z,2.00
2023-01-21T07:49:57.869Z,2.40
2023-01-21T07:50:57.865Z,2.40
2023-01-21T07:51:57.857Z,3.70
2023-01-21T07:52:57.810Z,2.50
2023-01-21T07:53:57.812Z,2.80
2023-01-21T07:54:57.829Z,2.90
2023-01-21T07:55:57.780Z,3.10
2023-01-21T07:56:57.785Z,2.40
2023-01-21T07:57:57.842Z,1.50
2023-01-21T07:58:57.761Z,3.60
2023-01-21T07:59:57.767Z,2.70
2023-01-21T08:00:57.743Z,3.70
2023-01-21T08:01:57.817Z,3.30
2023-01-21T08:02:57.777Z,2.80
2023-01-21T08:03:57.720Z,1.80
2023-01-21T08:04:57.707Z,2.20
2023-01-21T08:05:57.687Z,2.20
2023-01-21T08:06:57.679Z,3.80
2023-01-21T08:07:57.663Z,2.30
2023-01-21T08:08:57.669Z,2.50
2023-01-21T08:09:57.695Z,1.60
2023-01-21T08:10:57.673Z,2.60
2023-01-21T08:11:57.627Z,2.50
2023-01-21T08:12:57.628Z,2.40
2023-01-21T08:13:57.657Z,2.20
2023-01-21T08:14:57.612Z,3.30
2023-01-21T08:15:57.668Z,3.80
2023-01-21T08:16:57.570Z,2.70
2023-01-21T08:17:57.588Z,2.40
2023-01-21T08:18:57.555Z,4.80
2023-01-21T08:19:57.595Z,5.50
2023-01-21T08:20:57.620Z,6.80
2023-01-21T08:21:57.520Z,6.90
2023-01-21T08:22:57.515Z,8.80
2023-01-21T08:23:57.510Z,13.10
2023-01-21T08:24:57.499Z,3.50
2023-01-21T08:25:57.470Z,2.90
2023-01-21T08:26:57.488Z,4.30
2023-01-21T08:27:57.470Z,7.30
2023-01-21T08:28:57.464Z,3.50
2023-01-21T08:29:57.468Z,3.40
2023-01-21T08:30:57.476Z,5.50
2023-01-21T08:31:57.500Z,4.80
2023-01-21T08:32:57.423Z,1.70
2023-01-21T08:33:57.406Z,3.40
2023-01-21T08:34:57.426Z,3.00
2023-01-21T08:35:57.368Z,2.70
2023-01-21T08:36:57.380Z,3.80
2023-01-21T08:37:57.366Z,1.70
2023-01-21T08:38:57.364Z,2.60
2023-01-21T08:39:57.402Z,3.20
2023-01-21T08:40:57.332Z,4.50
2023-01-21T08:41:57.327Z,4.30
2023-01-21T08:42:57.322Z,3.40
2023-01-21T08:43:57.315Z,3.10
2023-01-21T08:44:57.317Z,6.10
2023-01-21T08:45:57.325Z,6.20
2023-01-21T08:46:57.277Z,5.20
2023-01-21T08:47:57.265Z,2.80
2023-01-21T08:48:57.238Z,4.40
2023-01-21T08:49:57.248Z,5.40
2023-01-21T08:50:57.263Z,3.60
2023-01-21T08:51:57.215Z,4.40
2023-01-21T08:52:57.203Z,3.70
2023-01-21T08:53:57.191Z,5.80
2023-01-21T08:54:57.211Z,4.70
2023-01-21T08:55:57.166Z,6.20
2023-01-21T08:56:57.148Z,3.40
2023-01-21T08:57:57.158Z,3.00
2023-01-21T08:58:57.147Z,4.10
2023-01-21T08:59:57.137Z,3.90
2023-01-21T09:00:57.141Z,2.70
2023-01-21T09:01:57.196Z,4.30
2023-01-21T09:02:57.089Z,2.90
2023-01-21T09:03:57.098Z,2.50
2023-01-21T09:04:57.098Z,2.40
2023-01-21T09:05:57.092Z,3.40
2023-01-21T09:06:57.061Z,3.10
2023-01-21T09:07:58.230Z,1.70
2023-01-21T09:08:57.031Z,2.10
2023-01-21T09:09:57.043Z,2.10
2023-01-21T09:10:57.048Z,1.70
2023-01-21T09:11:56.990Z,5.20
2023-01-21T09:12:56.978Z,2.80
2023-01-21T09:13:57.006Z,2.20
2023-01-21T09:14:57.008Z,4.10
2023-01-21T09:15:56.967Z,3.40
2023-01-21T09:16:56.938Z,3.10
2023-01-21T09:17:56.931Z,3.20
2023-01-21T09:18:56.949Z,2.90
2023-01-21T09:19:56.903Z,3.70
2023-01-21T09:20:56.932Z,3.40
2023-01-21T09:21:56.898Z,2.30
2023-01-21T09:22:56.871Z,2.30
2023-01-21T09:23:56.899Z,2.20
2023-01-21T09:24:57.061Z,2.50
2023-01-21T09:25:56.834Z,3.60
2023-01-21T09:26:56.837Z,2.50
2023-01-21T09:27:56.851Z,2.90
2023-01-21T09:28:56.843Z,2.40
2023-01-21T09:29:56.819Z,2.80
2023-01-21T09:30:56.862Z,3.30
2023-01-21T09:31:56.883Z,2.80
2023-01-21T09:32:56.834Z,3.20
2023-01-21T09:33:56.785Z,3.20
2023-01-21T09:34:56.770Z,3.00
2023-01-21T09:35:56.730Z,3.60
2023-01-21T09:36:56.762Z,2.90
2023-01-21T09:37:56.751Z,2.50
2023-01-21T09:38:56.740Z,4.40
2023-01-21T09:39:56.738Z,2.30
2023-01-21T09:40:56.699Z,4.90
2023-01-21T09:41:56.706Z,3.80
2023-01-21T09:42:56.658Z,2.50
2023-01-21T09:43:56.669Z,3.60
2023-01-21T09:44:56.659Z,3.80
2023-01-21T09:45:56.662Z,2.70
2023-01-21T09:46:56.629Z,2.80
2023-01-21T09:47:56.646Z,3.40
2023-01-21T09:48:56.613Z,3.20
2023-01-21T09:49:56.594Z,2.40
2023-01-21T09:50:56.624Z,3.10
2023-01-21T09:51:56.561Z,3.40
2023-01-21T09:52:56.566Z,5.90
2023-01-21T09:53:56.545Z,3.60
2023-01-21T09:54:56.549Z,5.20
2023-01-21T09:55:56.521Z,3.90
2023-01-21T09:56:56.531Z,2.40
2023-01-21T09:57:56.489Z,3.40
2023-01-21T09:58:56.488Z,4.90
2023-01-21T09:59:56.494Z,3.80
2023-01-21T10:00:56.519Z,5.20
2023-01-21T10:01:56.472Z,9.80
2023-01-21T10:02:56.456Z,3.90
2023-01-21T10:03:56.444Z,3.90
2023-01-21T10:04:56.437Z,3.30
2023-01-21T10:05:56.425Z,3.30
2023-01-21T10:06:56.433Z,6.50
2023-01-21T10:07:56.409Z,3.20
2023-01-21T10:08:56.378Z,5.40
2023-01-21T10:09:56.372Z,5.50
2023-01-21T10:10:56.389Z,4.20
2023-01-21T10:11:56.367Z,3.60
2023-01-21T10:12:56.335Z,3.80
2023-01-21T10:13:56.335Z,3.20
2023-01-21T10:14:56.392Z,3.60
2023-01-21T10:15:56.334Z,3.70
2023-01-21T10:16:56.354Z,4.50
2023-01-21T10:17:56.294Z,5.20
2023-01-21T10:18:56.287Z,3.10
2023-01-21T10:19:56.282Z,3.80
2023-01-21T10:20:56.321Z,3.90
2023-01-21T10:21:56.287Z,3.30
2023-01-21T10:22:56.235Z,4.00
2023-01-21T10:23:56.226Z,5.60
2023-01-21T10:24:56.240Z,3.30
2023-01-21T10:25:56.235Z,2.80
2023-01-21T10:26:56.197Z,2.90
2023-01-21T10:27:56.179Z,4.50
2023-01-21T10:28:56.183Z,3.00
2023-01-21T10:29:56.198Z,5.20
2023-01-21T10:30:56.217Z,6.00
2023-01-21T10:31:56.127Z,5.40
2023-01-21T10:32:56.127Z,4.00
2023-01-21T10:33:56.118Z,3.30
2023-01-21T10:34:56.137Z,3.20
2023-01-21T10:35:56.121Z,3.00
2023-01-21T10:36:56.131Z,3.00
2023-01-21T10:37:56.096Z,4.20
2023-01-21T10:38:56.047Z,4.20
2023-01-21T10:39:56.081Z,4.50
2023-01-21T10:40:56.067Z,4.10
2023-01-21T10:41:56.018Z,3.60
2023-01-21T10:42:56.032Z,2.50
2023-01-21T10:43:56.050Z,3.50
2023-01-21T10:44:56.007Z,3.60
2023-01-21T10:45:56.098Z,3.80
2023-01-21T10:46:55.990Z,3.20
2023-01-21T10:47:55.948Z,3.30
2023-01-21T10:48:56.000Z,3.70
2023-01-21T10:49:55.942Z,5.30
2023-01-21T10:50:55.950Z,3.10
2023-01-21T10:51:55.902Z,4.70
2023-01-21T10:52:55.893Z,2.80
2023-01-21T10:53:55.922Z,4.50
2023-01-21T10:54:55.901Z,2.90
2023-01-21T10:55:55.882Z,3.80
2023-01-21T10:56:55.870Z,4.20
2023-01-21T10:57:55.856Z,4.40
2023-01-21T10:58:55.886Z,2.00
2023-01-21T10:59:55.880Z,3.20
2023-01-21T11:00:55.843Z,3.10
2023-01-21T11:01:55.795Z,2.80
2023-01-21T11:02:55.826Z,2.20
2023-01-21T11:03:55.862Z,4.20
2023-01-21T11:04:55.837Z,4.90
2023-01-21T11:05:55.855Z,2.60
2023-01-21T11:06:55.850Z,2.80
2023-01-21T11:07:55.750Z,3.90
2023-01-21T11:08:55.775Z,3.00
2023-01-21T11:09:55.786Z,3.80
2023-01-21T11:10:55.716Z,4.30
2023-01-21T11:11:55.703Z,2.70
2023-01-21T11:12:55.689Z,3.10
2023-01-21T11:13:55.670Z,4.70
2023-01-21T11:14:55.813Z,3.30
2023-01-21T11:15:55.712Z,4.00
2023-01-21T11:16:55.692Z,2.90
2023-01-21T11:17:55.647Z,3.70
2023-01-21T11:18:55.643Z,2.80
2023-01-21T11:19:55.643Z,3.90
2023-01-21T11:20:55.635Z,4.60
2023-01-21T11:21:55.591Z,5.20
2023-01-21T11:22:55.594Z,5.40
2023-01-21T11:23:55.564Z,3.90
2023-01-21T11:24:55.584Z,4.50
2023-01-21T11:25:55.555Z,2.70
2023-01-21T11:26:55.580Z,4.10
2023-01-21T11:27:55.710Z,2.40
2023-01-21T11:28:55.506Z,3.20
2023-01-21T11:29:55.521Z,5.20
2023-01-21T11:30:55.770Z,3.50
2023-01-21T11:31:55.592Z,3.80
2023-01-21T11:32:55.480Z,2.30
2023-01-21T11:33:55.504Z,4.30
2023-01-21T11:34:55.504Z,4.40
2023-01-21T11:35:55.474Z,4.80
2023-01-21T11:36:55.417Z,4.20
2023-01-21T11:37:55.402Z,2.60
2023-01-21T11:38:55.414Z,2.50
2023-01-21T11:39:55.462Z,3.10
2023-01-21T11:40:55.409Z,3.60
2023-01-21T11:41:55.378Z,4.80
2023-01-21T11:42:55.400Z,4.00
2023-01-21T11:43:55.364Z,4.40
2023-01-21T11:44:55.345Z,3.30
2023-01-21T11:45:55.343Z,3.30
2023-01-21T11:46:55.344Z,4.70
2023-01-21T11:47:55.309Z,6.30
2023-01-21T11:48:55.284Z,2.90
2023-01-21T11:49:55.317Z,4.60
2023-01-21T11:50:55.360Z,7.20
2023-01-21T11:51:55.265Z,4.20
2023-01-21T11:52:55.254Z,4.40
2023-01-21T11:53:55.233Z,1.90
2023-01-21T11:54:55.241Z,2.20
2023-01-21T11:55:55.248Z,2.40
2023-01-21T11:56:55.200Z,4.10
2023-01-21T11:57:55.207Z,4.00
2023-01-21T11:58:55.250Z,4.70
2023-01-21T11:59:55.186Z,5.10
2023-01-21T12:00:55.224Z,3.00
2023-01-21T12:01:55.156Z,4.40
2023-01-21T12:02:55.170Z,3.80
2023-01-21T12:03:55.153Z,2.90
2023-01-21T12:04:55.143Z,4.20
2023-01-21T12:05:55.152Z,7.10
2023-01-21T12:06:55.096Z,3.40
2023-01-21T12:07:55.088Z,2.90
2023-01-21T12:08:55.093Z,3.10
2023-01-21T12:09:55.082Z,4.70
2023-01-21T12:10:55.090Z,8.00
2023-01-21T12:11:55.075Z,3.60
2023-01-21T12:12:55.085Z,6.10
2023-01-21T12:13:55.054Z,4.10
2023-01-21T12:14:55.092Z,4.30
2023-01-21T12:15:55.148Z,5.70
2023-01-21T12:16:54.996Z,4.70
2023-01-21T12:17:54.966Z,6.40
2023-01-21T12:18:54.988Z,2.90
2023-01-21T12:19:54.971Z,4.50
2023-01-21T12:20:54.944Z,3.50
2023-01-21T12:21:54.943Z,3.50
2023-01-21T12:22:54.925Z,3.60
2023-01-21T12:23:57.610Z,2.70
2023-01-21T12:24:54.958Z,5.00
2023-01-21T12:25:54.920Z,3.80
2023-01-21T12:26:54.913Z,2.40
2023-01-21T12:27:54.862Z,3.70
2023-01-21T12:28:54.854Z,4.70
2023-01-21T12:29:54.850Z,3.20
2023-01-21T12:30:54.992Z,4.20
2023-01-21T12:31:54.928Z,4.40
2023-01-21T12:32:54.840Z,3.30
2023-01-21T12:33:54.830Z,7.20
2023-01-21T12:34:54.793Z,4.40
2023-01-21T12:35:54.867Z,3.70
2023-01-21T12:36:54.836Z,5.10
2023-01-21T12:37:54.779Z,2.20
2023-01-21T12:38:54.805Z,3.00
2023-01-21T12:39:54.735Z,3.30
2023-01-21T12:40:54.772Z,3.60
2023-01-21T12:41:54.725Z,4.70
2023-01-21T12:42:54.743Z,4.60
2023-01-21T12:43:54.753Z,6.20
2023-01-21T12:44:54.727Z,4.90
2023-01-21T12:45:54.701Z,7.20
2023-01-21T12:46:54.741Z,3.90
2023-01-21T12:47:54.660Z,5.10
2023-01-21T12:48:54.647Z,5.40
2023-01-21T12:49:54.649Z,6.10
2023-01-21T12:50:54.651Z,5.40
2023-01-21T12:51:54.616Z,4.40
2023-01-21T12:52:54.610Z,4.80
2023-01-21T12:53:54.607Z,5.30
2023-01-21T12:54:54.619Z,4.30
2023-01-21T12:55:54.555Z,3.50
2023-01-21T12:56:54.551Z,6.40
2023-01-21T12:57:54.546Z,6.80
2023-01-21T12:58:54.543Z,6.30
2023-01-21T12:59:54.548Z,4.80
2023-01-21T13:00:54.570Z,7.20
2023-01-21T13:01:54.641Z,3.00
2023-01-21T13:02:54.516Z,6.50
2023-01-21T13:03:54.471Z,4.50
2023-01-21T13:04:54.491Z,4.40
2023-01-21T13:05:54.482Z,5.00
2023-01-21T13:06:54.741Z,4.60
2023-01-21T13:07:54.457Z,5.20
2023-01-21T13:08:54.446Z,6.00
2023-01-21T13:09:54.421Z,9.30
2023-01-21T13:10:54.399Z,6.80
2023-01-21T13:11:54.389Z,4.10
2023-01-21T13:12:54.398Z,7.50
2023-01-21T13:13:54.382Z,5.00
2023-01-21T13:14:54.401Z,4.70
2023-01-21T13:15:54.428Z,4.10
2023-01-21T13:16:54.339Z,5.90
2023-01-21T13:17:54.327Z,3.50